Time;durP1;ratioP1;P1;durP2;ratioP2;P2;SDS_P1;SDS_P2;PMS_P1;PMS_P2;Temp;Humidity;BMP_temperature;BMP_pressure;BME280_temperature;BME280_humidity;BME280_pressure;Samples;Min_cycle;Max_cycle;Signal;HPM_P1;HPM_P2
2021/09/29 00:02:22;;;;;;;3.92;2.67;;;14.50;99.90;;;;;;5011908;28;20025;-85
2021/09/29 00:04:48;;;;;;;6.03;2.67;;;14.40;99.90;;;;;;5011909;28;20505;-85
2021/09/29 00:07:14;;;;;;;4.60;2.70;;;14.70;99.90;;;;;;5011900;28;20033;-85
2021/09/29 00:09:39;;;;;;;5.28;2.65;;;14.90;99.90;;;;;;5011797;28;20029;-85
2021/09/29 00:12:05;;;;;;;7.00;2.92;;;14.70;99.90;;;;;;5011780;28;20517;-85
2021/09/29 00:14:32;;;;;;;5.55;2.70;;;14.70;99.90;;;;;;5013392;28;20030;-85
2021/09/29 00:16:57;;;;;;;11.75;3.53;;;14.80;99.90;;;;;;5013954;28;20034;-85
2021/09/29 00:19:24;;;;;;;6.38;3.00;;;14.80;99.90;;;;;;5015984;28;20084;-85
2021/09/29 00:21:49;;;;;;;5.55;2.92;;;14.80;99.90;;;;;;5015470;28;20022;-86
2021/09/29 00:24:15;;;;;;;5.45;3.10;;;14.80;99.90;;;;;;5015401;28;20030;-85
2021/09/29 00:26:41;;;;;;;4.72;2.95;;;14.80;99.90;;;;;;5015408;28;20477;-85
2021/09/29 00:29:07;;;;;;;4.13;2.75;;;14.80;99.90;;;;;;5015277;28;20461;-85
2021/09/29 00:34:28;;;;;;;5.38;3.03;;;14.90;99.90;;;;;;5016517;28;20037;-85
2021/09/29 00:36:54;;;;;;;8.10;3.33;;;15.00;99.90;;;;;;5015390;28;20048;-85
2021/09/29 00:39:20;;;;;;;6.15;3.60;;;15.10;99.90;;;;;;5015073;28;20026;-85
2021/09/29 00:41:47;;;;;;;7.72;3.47;;;15.10;99.90;;;;;;5015090;28;20121;-85
2021/09/29 00:44:13;;;;;;;7.28;3.00;;;14.80;99.90;;;;;;5014842;28;20044;-85
2021/09/29 00:46:39;;;;;;;5.93;3.13;;;15.00;99.90;;;;;;5015012;28;20476;-85
2021/09/29 00:49:05;;;;;;;6.78;3.78;;;14.90;99.90;;;;;;5014974;28;20018;-85
2021/09/29 00:51:32;;;;;;;6.35;3.30;;;14.60;99.90;;;;;;5014940;28;20052;-85
2021/09/29 00:53:59;;;;;;;7.38;3.75;;;14.40;99.90;;;;;;5014768;28;20183;-84
2021/09/29 00:56:24;;;;;;;7.35;2.90;;;14.30;99.90;;;;;;5014899;28;20430;-85
2021/09/29 00:58:50;;;;;;;9.40;3.22;;;14.20;99.90;;;;;;5014838;28;20029;-85
2021/09/29 01:01:16;;;;;;;6.07;2.88;;;14.10;99.90;;;;;;5014810;28;20418;-85
2021/09/29 01:03:44;;;;;;;8.65;2.83;;;14.20;99.90;;;;;;5014709;28;20113;-85
2021/09/29 01:06:17;;;;;;;4.20;2.80;;;14.10;99.90;;;;;;5015995;28;20033;-86
2021/09/29 01:08:49;;;;;;;6.95;2.92;;;14.50;99.90;;;;;;5014842;28;20026;-85
2021/09/29 01:11:22;;;;;;;6.43;3.00;;;14.50;99.90;;;;;;5015835;28;20477;-85
2021/09/29 01:13:56;;;;;;;5.38;2.83;;;14.20;99.90;;;;;;5014487;28;20053;-85
2021/09/29 01:16:23;;;;;;;7.07;2.80;;;14.20;99.90;;;;;;5014822;28;20021;-85
2021/09/29 01:18:56;;;;;;;7.20;3.05;;;14.60;99.90;;;;;;5019871;28;20034;-85
2021/09/29 01:21:24;;;;;;;6.63;2.65;;;14.40;99.90;;;;;;5018751;28;20075;-85
2021/09/29 01:24:01;;;;;;;4.35;3.03;;;14.70;99.90;;;;;;5016080;28;20457;-85
2021/09/29 01:26:30;;;;;;;8.52;3.33;;;14.80;99.90;;;;;;5014568;28;20543;-85
2021/09/29 01:28:57;;;;;;;8.25;3.35;;;14.70;99.90;;;;;;5013310;28;20041;-85
2021/09/29 01:31:24;;;;;;;8.70;3.17;;;14.50;99.90;;;;;;5015458;28;20032;-85
2021/09/29 01:33:51;;;;;;;8.93;3.60;;;14.30;99.90;;;;;;5014137;28;20034;-85
2021/09/29 01:36:22;;;;;;;8.95;3.40;;;14.20;99.90;;;;;;5014100;28;20108;-85
2021/09/29 01:38:53;;;;;;;9.20;3.45;;;14.10;99.90;;;;;;5014250;28;20473;-85
2021/09/29 01:41:19;;;;;;;4.85;3.20;;;13.80;99.90;;;;;;5014038;28;20117;-85
2021/09/29 01:43:45;;;;;;;8.20;3.60;;;13.80;99.90;;;;;;5013804;28;20124;-85
2021/09/29 01:46:10;;;;;;;10.43;2.97;;;13.80;99.90;;;;;;5015495;28;20026;-85
2021/09/29 01:48:48;;;;;;;4.82;3.00;;;13.80;99.90;;;;;;5013853;28;20022;-85
2021/09/29 01:51:14;;;;;;;4.68;3.22;;;14.10;99.90;;;;;;5013814;28;20032;-85
2021/09/29 01:53:42;;;;;;;6.68;2.67;;;14.30;99.90;;;;;;5013650;28;20409;-85
2021/09/29 01:56:08;;;;;;;4.43;3.15;;;14.50;99.90;;;;;;5013759;28;20053;-84
2021/09/29 01:58:34;;;;;;;5.07;3.40;;;14.50;99.90;;;;;;5013822;28;20030;-85
2021/09/29 02:01:01;;;;;;;5.28;3.42;;;14.40;99.90;;;;;;5013839;28;20022;-85
2021/09/29 02:03:26;;;;;;;7.80;3.63;;;14.30;99.90;;;;;;5013529;28;20025;-85
2021/09/29 02:05:52;;;;;;;4.45;3.22;;;14.10;99.90;;;;;;5013528;28;20029;-85
2021/09/29 02:08:19;;;;;;;5.57;2.92;;;14.30;99.90;;;;;;5013577;28;20029;-85
2021/09/29 02:10:45;;;;;;;4.95;3.30;;;14.40;99.90;;;;;;5013338;28;20022;-85
2021/09/29 02:13:10;;;;;;;3.90;2.97;;;14.50;99.90;;;;;;5013285;28;20033;-85
2021/09/29 02:15:36;;;;;;;7.28;3.50;;;14.30;99.90;;;;;;5013275;28;20083;-85
2021/09/29 02:18:02;;;;;;;6.00;3.13;;;14.60;99.90;;;;;;5013238;28;20018;-85
2021/09/29 02:20:28;;;;;;;5.13;3.00;;;14.40;99.90;;;;;;5013168;28;20029;-85
2021/09/29 02:22:53;;;;;;;8.55;3.42;;;13.90;99.90;;;;;;5013188;28;20571;-85
2021/09/29 02:25:20;;;;;;;5.28;3.10;;;14.10;99.90;;;;;;5013161;28;20033;-85
2021/09/29 02:27:45;;;;;;;3.53;2.88;;;14.50;99.90;;;;;;5013155;28;20049;-85
2021/09/29 02:30:12;;;;;;;7.53;4.05;;;14.40;99.90;;;;;;5013045;28;20119;-85
2021/09/29 02:32:38;;;;;;;5.40;3.25;;;14.20;99.90;;;;;;5012988;28;20060;-85
2021/09/29 02:35:07;;;;;;;5.03;3.35;;;14.10;99.90;;;;;;5012950;28;20022;-85
2021/09/29 02:37:33;;;;;;;5.85;2.92;;;14.00;99.90;;;;;;5012924;28;20038;-85
2021/09/29 02:39:59;;;;;;;5.85;3.47;;;14.10;99.90;;;;;;5013913;28;20026;-85
2021/09/29 02:42:24;;;;;;;8.10;3.42;;;14.20;99.90;;;;;;5012635;28;20041;-85
2021/09/29 02:44:50;;;;;;;6.93;3.40;;;14.00;99.90;;;;;;5012839;28;20026;-85
2021/09/29 02:47:16;;;;;;;7.18;3.83;;;14.20;99.90;;;;;;5012758;28;20460;-85
2021/09/29 02:49:42;;;;;;;6.93;3.50;;;14.10;99.90;;;;;;5012729;28;20473;-84
2021/09/29 02:52:07;;;;;;;4.90;3.35;;;13.90;99.90;;;;;;5012614;28;20029;-85
2021/09/29 02:54:33;;;;;;;5.90;3.60;;;13.80;99.90;;;;;;5013893;28;20421;-85
2021/09/29 02:56:59;;;;;;;7.45;3.22;;;13.60;99.90;;;;;;5012630;28;20026;-85
2021/09/29 02:59:24;;;;;;;4.82;3.22;;;13.70;99.90;;;;;;5014135;28;20022;-85
2021/09/29 03:01:50;;;;;;;4.70;3.28;;;13.60;99.90;;;;;;5012771;28;20417;-85
2021/09/29 03:04:16;;;;;;;7.60;3.40;;;13.50;99.90;;;;;;5012529;28;20021;-85
2021/09/29 03:06:41;;;;;;;9.55;3.38;;;13.30;99.90;;;;;;5012460;28;20018;-85
2021/09/29 03:09:07;;;;;;;4.85;3.50;;;13.20;99.90;;;;;;5012524;28;20057;-85
2021/09/29 03:11:33;;;;;;;5.03;3.08;;;13.10;99.90;;;;;;5012411;28;20457;-85
2021/09/29 03:13:59;;;;;;;7.35;3.33;;;13.40;99.90;;;;;;5012268;28;20084;-85
2021/09/29 03:16:25;;;;;;;6.82;3.08;;;13.60;99.90;;;;;;5012349;28;20393;-85
2021/09/29 03:18:51;;;;;;;3.70;2.78;;;13.50;99.90;;;;;;5013863;28;20026;-85
2021/09/29 03:21:17;;;;;;;6.30;2.72;;;13.60;99.90;;;;;;5012441;28;20026;-85
2021/09/29 03:23:43;;;;;;;5.47;2.85;;;13.80;99.90;;;;;;5013570;28;20474;-85
2021/09/29 03:26:09;;;;;;;5.18;3.10;;;13.60;99.90;;;;;;5012636;28;20037;-85
2021/09/29 03:28:36;;;;;;;10.02;3.47;;;13.90;99.90;;;;;;5014547;28;20470;-85
2021/09/29 03:31:02;;;;;;;3.50;2.95;;;14.10;99.90;;;;;;5016346;28;20401;-85
2021/09/29 03:33:28;;;;;;;6.07;3.28;;;14.20;99.90;;;;;;5014327;28;20033;-85
2021/09/29 03:35:53;;;;;;;7.15;3.47;;;14.00;99.90;;;;;;5012734;28;20071;-85
2021/09/29 03:38:19;;;;;;;9.45;3.28;;;13.80;99.90;;;;;;5012313;28;20172;-85
2021/09/29 03:40:45;;;;;;;7.20;3.70;;;13.70;99.90;;;;;;5012110;28;20441;-85
2021/09/29 03:43:11;;;;;;;4.80;3.03;;;13.70;99.90;;;;;;5011924;28;20046;-84
2021/09/29 03:45:36;;;;;;;5.68;3.05;;;13.90;99.90;;;;;;5012082;28;20084;-84
2021/09/29 03:48:02;;;;;;;4.22;3.25;;;13.90;99.90;;;;;;5012067;28;20029;-85
2021/09/29 03:50:29;;;;;;;8.15;3.60;;;13.80;99.90;;;;;;5012148;28;20061;-84
2021/09/29 03:52:54;;;;;;;4.43;3.10;;;13.60;99.90;;;;;;5015988;28;20034;-85
2021/09/29 03:55:22;;;;;;;4.85;3.00;;;13.60;99.90;;;;;;5015967;28;20018;-84
2021/09/29 03:57:48;;;;;;;6.13;2.92;;;13.70;99.90;;;;;;5015904;28;20032;-85
2021/09/29 04:00:14;;;;;;;8.02;3.47;;;13.80;99.90;;;;;;5015821;28;20084;-84
2021/09/29 04:02:41;;;;;;;3.45;2.95;;;13.80;99.90;;;;;;5015883;28;20029;-84
2021/09/29 04:05:08;;;;;;;4.90;2.90;;;13.90;99.90;;;;;;5015831;28;20041;-85
2021/09/29 04:07:36;;;;;;;4.65;2.72;;;13.80;99.90;;;;;;5015743;28;20064;-84
2021/09/29 04:10:02;;;;;;;6.90;3.40;;;13.70;99.90;;;;;;5015652;28;20026;-84
2021/09/29 04:12:28;;;;;;;9.00;3.25;;;13.80;99.90;;;;;;5015559;28;20381;-84
2021/09/29 04:14:54;;;;;;;6.03;3.08;;;13.70;99.90;;;;;;5015585;28;20029;-84
2021/09/29 04:17:19;;;;;;;7.68;3.20;;;13.50;99.90;;;;;;5015863;28;20060;-84
2021/09/29 04:19:45;;;;;;;5.95;3.10;;;13.50;99.90;;;;;;5015585;28;20117;-85
2021/09/29 04:22:11;;;;;;;5.68;2.95;;;13.70;99.90;;;;;;5016975;28;20441;-85
2021/09/29 04:24:38;;;;;;;8.57;3.33;;;13.80;99.90;;;;;;5015553;28;20041;-84
2021/09/29 04:27:05;;;;;;;6.22;3.30;;;13.70;99.90;;;;;;5015459;28;20493;-84
2021/09/29 04:29:30;;;;;;;5.13;3.55;;;13.50;99.90;;;;;;5015435;28;20495;-84
2021/09/29 04:31:56;;;;;;;11.13;3.50;;;13.50;99.90;;;;;;5015203;28;20065;-84
2021/09/29 04:34:22;;;;;;;5.07;2.90;;;13.60;99.90;;;;;;4999086;28;20500;-84
2021/09/29 04:36:48;;;;;;;11.90;3.35;;;13.50;99.90;;;;;;5015169;28;20208;-84
2021/09/29 04:39:14;;;;;;;5.40;2.70;;;13.30;99.90;;;;;;5015107;28;20022;-84
2021/09/29 04:41:41;;;;;;;6.63;3.40;;;13.30;99.90;;;;;;5016797;28;20054;-84
2021/09/29 04:44:07;;;;;;;6.78;3.30;;;13.30;99.90;;;;;;5015022;28;20037;-85
2021/09/29 04:46:32;;;;;;;7.43;3.10;;;13.40;99.90;;;;;;5015379;28;20198;-84
2021/09/29 04:48:58;;;;;;;6.40;3.08;;;13.30;99.90;;;;;;5016289;28;20404;-84
2021/09/29 04:51:24;;;;;;;5.38;2.95;;;13.30;99.90;;;;;;5014900;28;20030;-84
2021/09/29 04:53:50;;;;;;;5.88;2.85;;;13.20;99.90;;;;;;5014852;28;20375;-84
2021/09/29 04:56:15;;;;;;;8.25;2.65;;;13.20;99.90;;;;;;5014773;28;20370;-84
2021/09/29 04:58:43;;;;;;;6.65;2.83;;;13.30;99.90;;;;;;5014753;28;20436;-84
2021/09/29 05:01:13;;;;;;;5.22;3.22;;;13.40;99.90;;;;;;5014720;28;20084;-85
2021/09/29 05:03:39;;;;;;;4.68;2.25;;;13.40;99.90;;;;;;5014563;28;20034;-85
2021/09/29 05:06:05;;;;;;;11.65;6.30;;;13.50;99.90;;;;;;5014605;28;20037;-84
2021/09/29 05:08:34;;;;;;;10.82;5.28;;;13.40;99.90;;;;;;5014591;28;20058;-84
2021/09/29 05:11:19;;;;;;;9.02;5.85;;;13.30;99.90;;;;;;5014527;28;20120;-84
2021/09/29 05:13:45;;;;;;;4.20;3.13;;;13.20;99.90;;;;;;5015869;28;20026;-84
2021/09/29 05:16:11;;;;;;;8.57;4.93;;;13.10;99.90;;;;;;5015822;28;20125;-84
2021/09/29 05:18:37;;;;;;;9.23;3.67;;;13.10;99.90;;;;;;5014468;28;20481;-84
2021/09/29 05:21:03;;;;;;;6.30;3.67;;;13.10;99.90;;;;;;5014318;28;20022;-84
2021/09/29 05:23:29;;;;;;;8.00;3.45;;;13.20;99.90;;;;;;5014306;28;20054;-84
2021/09/29 05:25:55;;;;;;;7.25;3.22;;;13.10;99.90;;;;;;5014605;28;20061;-84
2021/09/29 05:28:26;;;;;;;11.10;3.40;;;13.10;99.90;;;;;;5015609;28;20120;-84
2021/09/29 05:30:51;;;;;;;3.92;2.95;;;13.10;99.90;;;;;;5014199;28;20105;-84
2021/09/29 05:33:17;;;;;;;7.07;3.08;;;13.10;99.90;;;;;;5014469;28;20121;-85
2021/09/29 05:35:43;;;;;;;4.35;2.80;;;13.20;99.90;;;;;;5014195;28;20044;-84
2021/09/29 05:38:09;;;;;;;5.78;2.40;;;13.10;99.90;;;;;;5014575;28;20032;-84
2021/09/29 05:40:35;;;;;;;3.88;2.67;;;13.10;99.90;;;;;;5019844;28;20018;-86
2021/09/29 05:43:00;;;;;;;4.03;2.45;;;13.30;99.90;;;;;;5016055;28;20076;-84
2021/09/29 05:45:27;;;;;;;6.60;2.70;;;13.50;99.90;;;;;;5014176;28;20025;-83
2021/09/29 05:47:52;;;;;;;4.47;2.30;;;13.40;99.90;;;;;;5015281;28;20026;-84
2021/09/29 05:50:18;;;;;;;3.45;2.08;;;13.30;99.90;;;;;;5015087;28;20033;-84
2021/09/29 05:52:44;;;;;;;8.15;2.45;;;13.40;99.90;;;;;;5013808;28;20037;-85
2021/09/29 05:55:10;;;;;;;5.03;2.30;;;13.30;99.90;;;;;;5013943;28;20453;-85
2021/09/29 05:57:36;;;;;;;7.35;2.83;;;13.30;99.90;;;;;;5013573;28;20029;-85
2021/09/29 06:00:03;;;;;;;6.43;2.88;;;13.40;99.90;;;;;;5013694;28;20522;-85
2021/09/29 06:02:29;;;;;;;4.95;2.30;;;13.40;99.90;;;;;;5013619;28;20051;-85
2021/09/29 06:04:54;;;;;;;7.05;2.70;;;13.60;99.90;;;;;;5013582;28;20037;-84
2021/09/29 06:07:20;;;;;;;6.00;2.17;;;13.60;99.90;;;;;;5014808;28;20087;-84
2021/09/29 06:09:46;;;;;;;7.68;3.05;;;13.40;99.90;;;;;;5014049;28;20032;-84
2021/09/29 06:12:13;;;;;;;5.57;2.50;;;13.40;99.90;;;;;;5013351;28;20033;-85
2021/09/29 06:14:41;;;;;;;6.93;2.83;;;13.60;99.90;;;;;;5013954;28;20457;-84
2021/09/29 06:19:54;;;;;;;9.00;3.90;;;14.20;99.90;;;;;;5015140;28;20073;-84
2021/09/29 06:22:21;;;;;;;7.85;3.88;;;14.30;99.90;;;;;;5013292;28;20036;-84
2021/09/29 06:24:47;;;;;;;15.77;5.85;;;14.50;99.90;;;;;;5013572;28;20029;-84
2021/09/29 06:27:14;;;;;;;16.98;5.82;;;14.50;99.90;;;;;;5013187;28;20500;-84
2021/09/29 06:29:41;;;;;;;7.32;3.83;;;14.70;99.90;;;;;;5014360;28;20396;-84
2021/09/29 06:32:07;;;;;;;8.65;3.47;;;14.60;99.90;;;;;;5013050;28;20034;-84
2021/09/29 06:34:33;;;;;;;5.80;2.42;;;14.80;99.90;;;;;;5014317;28;20030;-84
2021/09/29 06:36:59;;;;;;;9.52;3.38;;;14.90;99.90;;;;;;5012978;28;20400;-84
2021/09/29 06:39:25;;;;;;;7.10;2.80;;;14.90;99.90;;;;;;5012926;28;20022;-84
2021/09/29 06:41:51;;;;;;;6.47;2.80;;;14.90;99.90;;;;;;5012756;28;20029;-84
2021/09/29 06:44:16;;;;;;;6.68;2.70;;;14.80;99.90;;;;;;5035863;28;20064;-84
2021/09/29 06:46:42;;;;;;;8.63;3.05;;;14.90;99.90;;;;;;5053719;28;20025;-85
2021/09/29 06:49:08;;;;;;;5.05;2.53;;;14.90;99.90;;;;;;5035831;28;20053;-83
2021/09/29 06:51:34;;;;;;;4.32;2.35;;;14.90;99.90;;;;;;5035739;28;20435;-85
2021/09/29 06:54:00;;;;;;;7.28;2.60;;;15.10;99.90;;;;;;5053471;28;20052;-84
2021/09/29 06:56:26;;;;;;;10.10;2.13;;;14.90;99.90;;;;;;5035697;28;20476;-83
2021/09/29 06:58:52;;;;;;;6.78;1.92;;;15.00;99.90;;;;;;5035546;28;20090;-84
2021/09/29 07:01:22;;;;;;;8.10;2.35;;;15.00;99.90;;;;;;5038447;28;20017;-84
2021/09/29 07:03:48;;;;;;;7.13;1.90;;;14.50;99.90;;;;;;5035417;28;20036;-84
2021/09/29 07:06:14;;;;;;;5.90;2.38;;;15.00;99.90;;;;;;5035236;28;20032;-84
2021/09/29 07:08:40;;;;;;;12.75;2.63;;;15.10;99.90;;;;;;5035222;28;20037;-84
2021/09/29 07:11:06;;;;;;;6.22;1.83;;;15.10;99.90;;;;;;5035529;28;20033;-85
2021/09/29 07:13:32;;;;;;;6.50;1.60;;;15.30;99.90;;;;;;5035344;28;20025;-85
2021/09/29 07:15:58;;;;;;;6.82;1.98;;;15.10;99.90;;;;;;5035313;28;20028;-84
2021/09/29 07:18:28;;;;;;;7.20;1.85;;;15.10;99.90;;;;;;5035368;28;20021;-85
2021/09/29 07:20:54;;;;;;;6.53;2.00;;;15.00;99.90;;;;;;5035339;28;20496;-84
2021/09/29 07:23:20;;;;;;;8.00;2.20;;;14.80;99.90;;;;;;5035206;28;20060;-84
2021/09/29 07:25:46;;;;;;;9.35;1.85;;;15.00;99.90;;;;;;5034549;28;20162;-84
2021/09/29 07:28:11;;;;;;;9.80;1.95;;;15.30;99.90;;;;;;5035128;28;20036;-83
2021/09/29 07:30:39;;;;;;;4.53;1.45;;;15.50;99.90;;;;;;5035270;28;20029;-84
2021/09/29 07:33:06;;;;;;;4.22;1.30;;;15.70;99.90;;;;;;5035215;28;20025;-85
2021/09/29 07:35:33;;;;;;;8.30;1.38;;;15.70;99.90;;;;;;5035254;28;20027;-84
2021/09/29 07:38:00;;;;;;;7.50;1.38;;;15.80;99.90;;;;;;5035021;28;20465;-84
2021/09/29 07:40:27;;;;;;;3.65;1.33;;;15.90;99.90;;;;;;5035531;28;20038;-85
2021/09/29 07:42:53;;;;;;;4.90;1.10;;;15.80;99.90;;;;;;5034802;28;20135;-83
2021/09/29 07:45:19;;;;;;;4.20;1.27;;;15.50;99.90;;;;;;5036183;28;20127;-83
2021/09/29 07:47:44;;;;;;;4.78;1.38;;;15.70;99.90;;;;;;5052972;28;20097;-84
2021/09/29 07:50:15;;;;;;;4.22;1.40;;;15.80;99.90;;;;;;5036046;28;20484;-83
2021/09/29 07:52:41;;;;;;;9.98;1.65;;;15.90;99.90;;;;;;5054078;28;20476;-83
2021/09/29 07:55:08;;;;;;;4.95;1.38;;;16.00;99.90;;;;;;5053623;28;20028;-84
2021/09/29 07:57:34;;;;;;;4.10;1.20;;;16.30;99.90;;;;;;5035590;28;20055;-84
2021/09/29 07:59:59;;;;;;;7.35;1.52;;;16.20;99.90;;;;;;5035018;28;20052;-84
2021/09/29 08:02:26;;;;;;;6.70;1.35;;;16.10;99.90;;;;;;5034887;28;20040;-84
2021/09/29 08:04:52;;;;;;;5.70;1.40;;;16.10;99.90;;;;;;5034954;28;20042;-83
2021/09/29 08:07:18;;;;;;;5.15;1.10;;;16.10;99.90;;;;;;5034831;28;20025;-84
2021/09/29 08:09:44;;;;;;;7.03;1.33;;;16.00;99.90;;;;;;5034897;28;20036;-84
2021/09/29 08:12:09;;;;;;;3.83;1.20;;;16.30;99.90;;;;;;5034943;28;20047;-85
2021/09/29 08:14:39;;;;;;;3.03;1.38;;;16.40;99.90;;;;;;5034819;28;20021;-84
2021/09/29 08:17:06;;;;;;;6.45;1.23;;;16.70;99.90;;;;;;5034864;28;20017;-84
2021/09/29 08:19:36;;;;;;;4.82;1.20;;;16.70;99.90;;;;;;5052670;28;20095;-84
2021/09/29 08:22:07;;;;;;;4.90;1.10;;;16.70;99.90;;;;;;5034803;28;20400;-84
2021/09/29 08:24:39;;;;;;;3.45;0.93;;;16.60;99.90;;;;;;5034754;28;20024;-83
2021/09/29 08:27:10;;;;;;;6.03;1.27;;;16.60;99.90;;;;;;5034794;28;20049;-84
2021/09/29 08:39:46;;;;;;;5.13;0.90;;;17.50;99.90;;;;;;5056151;28;20020;-84
2021/09/29 08:47:53;;;;;;;4.45;0.85;;;17.60;99.90;;;;;;5038897;28;20040;-81
2021/09/29 08:50:39;;;;;;;4.28;1.02;;;17.40;99.90;;;;;;5038168;28;20033;-84
2021/09/29 08:53:22;;;;;;;3.00;0.85;;;17.00;99.90;;;;;;5038283;28;20033;-84
2021/09/29 09:14:58;;;;;;;6.70;1.17;;;17.20;99.90;;;;;;5055499;28;20075;-85
2021/09/29 09:17:37;;;;;;;3.65;0.98;;;17.80;99.90;;;;;;5037541;28;20021;-85
2021/09/29 09:20:19;;;;;;;3.35;0.85;;;17.90;99.90;;;;;;5037454;28;20067;-85
2021/09/29 09:22:49;;;;;;;3.47;1.00;;;18.50;99.90;;;;;;5037403;28;20025;-83
2021/09/29 09:25:15;;;;;;;4.18;1.00;;;17.80;99.90;;;;;;5055411;28;20435;-83
2021/09/29 09:27:45;;;;;;;3.83;1.00;;;17.70;99.90;;;;;;5037212;28;20033;-83
2021/09/29 09:30:23;;;;;;;5.22;1.02;;;17.90;99.90;;;;;;5037217;28;20046;-83
2021/09/29 09:32:55;;;;;;;4.32;0.98;;;17.90;99.90;;;;;;5037146;28;20037;-84
2021/09/29 09:35:21;;;;;;;3.97;1.10;;;17.50;99.90;;;;;;5037408;28;20120;-83
2021/09/29 09:37:54;;;;;;;3.80;0.90;;;17.50;99.90;;;;;;5037745;28;20392;-83
2021/09/29 09:40:21;;;;;;;3.58;0.80;;;17.30;99.90;;;;;;5037380;28;20025;-81
2021/09/29 09:42:56;;;;;;;5.05;1.00;;;17.00;99.90;;;;;;5036791;28;20045;-83
2021/09/29 09:45:32;;;;;;;7.32;1.30;;;17.20;99.90;;;;;;5036936;28;20027;-83
2021/09/29 09:47:58;;;;;;;3.25;1.05;;;17.70;99.90;;;;;;5036908;28;20033;-83
2021/09/29 09:50:28;;;;;;;4.20;0.98;;;18.20;99.90;;;;;;5036374;28;20369;-83
2021/09/29 09:52:54;;;;;;;3.45;0.70;;;18.40;99.90;;;;;;5037019;28;20117;-83
2021/09/29 09:55:23;;;;;;;4.47;0.80;;;18.50;99.90;;;;;;5036797;28;20048;-83
2021/09/29 09:57:56;;;;;;;4.90;1.00;;;18.70;99.90;;;;;;5036885;28;20392;-82
2021/09/29 10:00:25;;;;;;;4.10;0.98;;;18.80;99.90;;;;;;5054816;28;20021;-83
2021/09/29 10:02:54;;;;;;;3.10;1.00;;;19.10;99.90;;;;;;5054884;28;20060;-83
2021/09/29 10:05:20;;;;;;;2.78;0.90;;;19.40;99.90;;;;;;5036781;28;20121;-83
2021/09/29 10:07:47;;;;;;;4.38;0.95;;;19.40;99.90;;;;;;5036699;28;20075;-84
2021/09/29 10:10:21;;;;;;;5.15;1.00;;;19.50;99.90;;;;;;5036621;28;20029;-84
2021/09/29 10:27:14;;;;;;;5.20;0.93;;;18.50;99.90;;;;;;5054247;28;20021;-82
2021/09/29 10:30:09;;;;;;;1.73;0.70;;;18.20;99.90;;;;;;5054113;28;20033;-83
2021/09/29 10:32:44;;;;;;;8.60;1.10;;;18.30;99.90;;;;;;5036075;28;20036;-80
2021/09/29 11:30:36;;;;;;;3.58;0.80;;;22.30;99.90;;;;;;5053392;28;20025;-84
2021/09/29 11:33:21;;;;;;;2.75;0.60;;;22.80;99.90;;;;;;5035228;28;20029;-84
2021/09/29 12:11:24;;;;;;;2.13;0.50;;;19.40;99.90;;;;;;5053066;28;20036;-83
2021/09/29 12:16:37;;;;;;;2.58;0.52;;;19.50;99.90;;;;;;5057970;28;20017;-83
2021/09/29 12:19:07;;;;;;;3.33;0.85;;;;;;;;;;5038904;28;20017;-82
2021/09/29 12:21:48;;;;;;;4.47;0.70;;;22.20;99.90;;;;;;5038711;28;20083;-83
2021/09/29 12:24:47;;;;;;;6.93;0.90;;;21.90;99.90;;;;;;5056525;28;20016;-83
2021/09/29 12:27:24;;;;;;;4.43;0.80;;;20.80;99.90;;;;;;5038560;28;20025;-84
2021/09/29 12:29:53;;;;;;;5.10;0.90;;;20.10;99.90;;;;;;5056454;28;20025;-83
2021/09/29 12:35:06;;;;;;;2.97;0.90;;;19.60;99.90;;;;;;5056696;28;20021;-82
2021/09/29 12:37:32;;;;;;;2.40;0.80;;;19.40;99.90;;;;;;5038325;28;20029;-83
2021/09/29 12:39:58;;;;;;;5.90;0.70;;;19.20;99.90;;;;;;5056594;28;20096;-83
2021/09/29 12:42:38;;;;;;;4.45;0.75;;;19.00;99.90;;;;;;5038125;28;20102;-83
2021/09/29 12:45:04;;;;;;;4.13;0.70;;;18.80;99.90;;;;;;5038281;28;20032;-83
2021/09/29 12:50:04;;;;;;;3.72;0.70;;;19.10;99.90;;;;;;5056329;28;20025;-83
2021/09/29 12:52:33;;;;;;;4.85;0.93;;;20.00;99.90;;;;;;5037981;28;20397;-82
2021/09/29 12:55:00;;;;;;;2.97;0.80;;;20.20;99.90;;;;;;5037943;28;20028;-84
2021/09/29 12:57:28;;;;;;;4.65;1.00;;;20.00;99.90;;;;;;5055943;28;20108;-85
2021/09/29 12:59:57;;;;;;;3.15;0.85;;;19.70;99.90;;;;;;5037989;28;20442;-86
2021/09/29 13:02:24;;;;;;;5.20;0.75;;;19.50;99.90;;;;;;5038011;28;20025;-85
2021/09/29 13:04:50;;;;;;;7.35;0.73;;;19.20;99.90;;;;;;5037807;28;20058;-85
2021/09/29 13:07:16;;;;;;;5.13;0.77;;;18.90;99.90;;;;;;5037898;28;20120;-85
2021/09/29 13:09:42;;;;;;;4.10;0.90;;;18.50;99.90;;;;;;5037761;28;20025;-86
2021/09/29 13:12:08;;;;;;;2.22;0.70;;;18.10;99.90;;;;;;5037686;28;20381;-85
2021/09/29 13:14:34;;;;;;;6.75;1.10;;;17.80;99.90;;;;;;5037681;28;20079;-86
2021/09/29 13:16:59;;;;;;;7.18;1.13;;;17.50;99.90;;;;;;5037744;28;20029;-85
2021/09/29 13:19:40;;;;;;;8.48;1.00;;;17.40;99.90;;;;;;5055752;28;20031;-86
2021/09/29 13:22:15;;;;;;;4.18;0.95;;;17.10;99.90;;;;;;5038095;28;20017;-85
2021/09/29 13:27:34;;;;;;;3.03;0.85;;;17.00;99.90;;;;;;5055975;28;20115;-88
2021/09/29 13:36:33;;;;;;;5.25;1.02;;;16.80;99.90;;;;;;5055388;28;20404;-85
2021/09/29 13:38:14;;;;;;;3.08;0.88;;;16.70;99.90;;;;;;5055267;28;20024;-87
2021/09/29 13:40:43;;;;;;;6.57;1.00;;;16.70;99.90;;;;;;5037476;28;20476;-85
2021/09/29 13:43:09;;;;;;;2.92;1.05;;;16.30;99.90;;;;;;5037281;28;20076;-84
2021/09/29 13:45:36;;;;;;;5.70;0.70;;;16.90;99.90;;;;;;5037135;28;20169;-84
2021/09/29 13:48:02;;;;;;;1.08;0.52;;;18.20;99.90;;;;;;5037262;28;20021;-85
2021/09/29 13:50:28;;;;;;;2.47;0.88;;;19.10;99.90;;;;;;5037030;28;20055;-85
2021/09/29 13:52:54;;;;;;;1.92;0.73;;;18.90;99.90;;;;;;5037150;28;20439;-85
2021/09/29 13:55:23;;;;;;;2.17;0.80;;;18.50;99.90;;;;;;5037120;28;20021;-86
2021/09/29 14:30:18;;;;;;;0.63;0.22;;;15.80;99.90;;;;;;5055012;28;20044;-85
2021/09/29 14:35:16;;;;;;;1.75;0.30;;;15.60;99.90;;;;;;5053837;28;20051;-84
2021/09/29 14:37:42;;;;;;;2.50;0.60;;;15.50;99.90;;;;;;5036032;28;20017;-85
2021/09/29 14:40:08;;;;;;;1.50;0.50;;;15.50;99.90;;;;;;5053937;28;20029;-84
2021/09/29 14:42:34;;;;;;;0.55;0.30;;;15.50;99.90;;;;;;5035892;28;20040;-87
2021/09/29 14:45:00;;;;;;;0.75;0.30;;;15.30;99.90;;;;;;5053835;28;20033;-85
2021/09/29 14:47:26;;;;;;;0.82;0.20;;;15.20;99.90;;;;;;5035965;28;20087;-85
2021/09/29 14:49:52;;;;;;;3.03;0.40;;;15.40;99.90;;;;;;5035953;28;20025;-84
2021/09/29 14:52:18;;;;;;;0.75;0.50;;;15.70;99.90;;;;;;5036348;28;20536;-85
2021/09/29 14:54:44;;;;;;;0.95;0.22;;;15.90;99.90;;;;;;5035888;28;20113;-84
2021/09/29 14:57:10;;;;;;;1.02;0.20;;;15.80;99.90;;;;;;5035643;28;20028;-84
2021/09/29 14:59:46;;;;;;;2.08;0.10;;;15.60;99.90;;;;;;5036031;28;20029;-84
2021/09/29 15:02:16;;;;;;;0.80;0.30;;;15.60;99.90;;;;;;5035628;28;20111;-86
2021/09/29 15:04:43;;;;;;;0.40;0.10;;;15.60;99.90;;;;;;5035703;28;20106;-86
2021/09/29 15:07:08;;;;;;;0.70;0.30;;;15.60;99.90;;;;;;5019280;28;20163;-84
2021/09/29 15:09:35;;;;;;;0.28;0.10;;;15.80;99.90;;;;;;5035611;28;20067;-86
2021/09/29 15:12:02;;;;;;;1.10;0.20;;;16.00;99.90;;;;;;5035621;28;20033;-84
2021/09/29 15:16:59;;;;;;;0.85;0.17;;;16.20;99.90;;;;;;5053697;28;20465;-85
2021/09/29 15:48:32;;;;;;;0.98;0.32;;;16.60;99.90;;;;;;5057270;28;20032;-88
2021/09/29 15:56:24;;;;;;;1.58;0.50;;;16.20;99.90;;;;;;5059235;28;19991;-91
2021/09/29 15:59:14;;;;;;;0.52;0.20;;;16.30;99.90;;;;;;5041877;28;20029;-90
2021/09/29 16:01:38;;;;;;;0.63;0.22;;;16.10;99.90;;;;;;5058059;28;20434;-91
2021/09/29 16:04:25;;;;;;;0.88;0.22;;;15.90;99.90;;;;;;5041381;28;20025;-90
2021/09/29 16:18:21;;;;;;;1.10;0.40;;;15.70;99.90;;;;;;5013420;28;20029;-90
2021/09/29 16:31:39;;;;;;;2.83;0.43;;;15.70;99.90;;;;;;5062458;28;20052;-90
2021/09/29 16:34:18;;;;;;;3.00;0.60;;;15.80;99.90;;;;;;5057834;28;20017;-90
2021/09/29 16:36:44;;;;;;;1.95;0.40;;;15.70;99.90;;;;;;5051353;28;20029;-91
2021/09/29 16:39:09;;;;;;;1.55;0.60;;;15.70;99.90;;;;;;5041529;28;20086;-90
2021/09/29 16:41:35;;;;;;;2.40;0.50;;;15.70;99.90;;;;;;5040125;28;20017;-90
2021/09/29 16:44:01;;;;;;;1.17;0.45;;;15.60;99.90;;;;;;5038770;28;20515;-90
2021/09/29 16:46:32;;;;;;;2.95;0.47;;;15.40;99.90;;;;;;5038155;28;20059;-91
2021/09/29 16:48:58;;;;;;;1.55;0.70;;;15.50;99.90;;;;;;5038607;28;20033;-90
2021/09/29 16:51:42;;;;;;;1.50;0.60;;;15.50;99.90;;;;;;5038101;28;20025;-90
2021/09/29 16:54:11;;;;;;;2.85;1.25;;;15.60;99.90;;;;;;5037947;28;20115;-91
2021/09/29 16:56:40;;;;;;;1.98;0.73;;;15.50;99.90;;;;;;5038032;28;20392;-90
2021/09/29 17:01:57;;;;;;;0.82;0.47;;;15.60;99.90;;;;;;5055718;28;20113;-91
2021/09/29 17:04:24;;;;;;;1.52;0.63;;;15.30;99.90;;;;;;5037947;28;20082;-90
2021/09/29 17:06:50;;;;;;;1.60;0.63;;;15.40;99.90;;;;;;5037705;28;20033;-90
2021/09/29 17:09:15;;;;;;;0.70;0.40;;;15.50;99.90;;;;;;5038447;28;20028;-90
2021/09/29 17:11:41;;;;;;;3.78;2.35;;;15.40;99.90;;;;;;5038454;28;20037;-92